Latest Weather Observations for East Sale

IDV60801

Issued at 9:35 am EST Wednesday 3 September 2014 (issued every 30 minutes, with the page automatically refreshed every 10 minutes)

About weather observations | Map of weather stations | Latest weather observations for VIC | Other Formats
Station Details ID: 085072 Name: EAST SALE AIRPORT Lat: -38.12 Lon: 147.13 Height: 4.6 m
Data from the previous 72 hours. | See also: Recent months at East Sale
Date/Time
EST
Temp
°C
App
Temp
°C
Dew
Point
Rel
Hum
%
Delta-T
°C
Wind Press
QNH
hPa
Press
MSL
hPa
Rain
since 9 am
mm
Dir
 
Spd
km/h
Gust
km/h
Spd
kts
Gust
kts
03/09:30am 10.0 4.8 5.6 74 2.0 W 22 28 12 15 1022.6 - 0.0
03/09:00am 9.6 5.4 5.7 76 1.8 W 17 26 9 14 1022.7 1022.7 2.4
03/08:30am 7.3 2.9 4.5 82 1.2 W 17 20 9 11 1022.6 - 2.4
03/08:00am 6.7 1.9 4.4 85 1.0 W 19 24 10 13 1022.5 - 2.4
03/07:30am 6.5 2.0 4.4 86 0.9 WNW 17 19 9 10 1022.3 - 2.4
03/07:00am 5.9 1.0 4.0 88 0.8 W 19 22 10 12 1022.0 - 2.4
03/06:30am 5.3 0.2 3.9 91 0.6 W 20 24 11 13 1022.0 - 2.4
03/06:00am 4.7 0.1 3.5 92 0.5 W 17 20 9 11 1022.0 1022.0 2.4
03/05:30am 4.8 0.2 3.6 92 0.5 W 17 20 9 11 1021.8 - 2.4
03/05:00am 5.0 0.4 3.8 92 0.5 W 17 22 9 12 1021.6 - 2.4
03/04:30am 5.4 0.5 4.0 91 0.6 W 19 22 10 12 1021.1 - 2.4
03/04:00am 5.4 0.3 4.0 91 0.6 W 20 24 11 13 1020.9 - 2.4
03/03:30am 5.5 0.0 4.1 91 0.6 W 22 26 12 14 1020.7 - 2.4
03/03:20am 5.8 0.8 4.4 91 0.6 W 20 26 11 14 1020.8 - 2.4
03/03:05am 5.9 0.2 4.7 92 0.5 W 24 30 13 16 1020.8 - 2.4
03/03:00am 5.9 0.2 4.7 92 0.5 W 24 30 13 16 1020.8 1020.8 2.0
03/02:30am 5.7 0.5 3.8 87 0.8 W 20 28 11 15 1020.8 - 1.4
03/02:00am 6.1 0.9 3.7 84 1.0 W 20 26 11 14 1021.1 - 1.4
03/01:30am 5.4 0.2 3.5 87 0.8 W 20 24 11 13 1021.2 - 1.4
03/01:00am 5.6 0.3 3.2 84 1.0 W 20 24 11 13 1021.4 - 1.4
03/12:30am 4.8 0.1 3.1 89 0.7 WNW 17 19 9 10 1021.5 - 1.4
03/12:00am 4.3 -0.5 2.8 90 0.6 WNW 17 19 9 10 1021.5 1021.5 1.4
 
Date/Time
EST
Temp
°C
App
Temp
°C
Dew
Point
Rel
Hum
%
Delta-T
°C
Wind Press
QNH
hPa
Press
MSL
hPa
Rain
since 9 am
mm
Dir
 
Spd
km/h
Gust
km/h
Spd
kts
Gust
kts
02/11:30pm 5.0 0.7 3.1 87 0.8 WNW 15 17 8 9 1021.6 - 1.4
02/11:00pm 5.5 1.2 3.3 86 0.9 W 15 19 8 10 1021.6 - 1.4
02/10:30pm 5.6 1.3 3.4 86 0.9 WNW 15 17 8 9 1021.7 - 1.4
02/10:00pm 5.0 1.1 3.6 91 0.6 WNW 13 15 7 8 1021.8 - 1.4
02/09:30pm 5.5 2.1 4.1 91 0.6 W 11 13 6 7 1021.6 - 1.4
02/09:00pm 6.2 2.1 4.1 86 0.9 W 15 17 8 9 1021.7 1021.7 1.4
02/08:30pm 6.8 3.1 4.5 85 1.0 WSW 13 15 7 8 1021.4 - 1.4
02/08:00pm 7.2 3.5 4.4 82 1.2 W 13 17 7 9 1021.0 - 1.4
02/07:30pm 7.0 3.7 4.7 85 1.0 W 11 13 6 7 1020.9 - 1.4
02/07:00pm 7.6 4.0 5.1 84 1.1 WSW 13 15 7 8 1020.6 - 1.4
02/06:30pm 8.9 5.4 5.6 80 1.5 SW 13 19 7 10 1020.4 - 1.4
02/06:00pm 9.9 6.0 5.3 73 2.1 S 15 22 8 12 1019.9 1019.9 1.4
02/05:30pm 10.8 6.0 5.6 70 2.4 S 20 32 11 17 1019.5 - 1.4
02/05:00pm 11.6 8.3 6.5 71 2.4 SSW 13 24 7 13 1019.2 - 1.4
02/04:30pm 11.4 5.7 4.8 64 3.0 SSW 24 32 13 17 1018.9 - 1.4
02/04:00pm 11.9 6.5 4.4 60 3.4 S 22 33 12 18 1018.4 - 1.4
02/03:30pm 12.6 6.9 5.0 60 3.5 S 24 37 13 20 1018.1 - 1.4
02/03:00pm 12.2 8.0 5.8 65 3.0 S 17 22 9 12 1017.8 1017.8 1.4
02/02:30pm 11.9 5.9 5.2 63 3.1 S 26 32 14 17 1017.5 - 1.2
02/02:00pm 12.6 8.3 7.2 69 2.6 SW 19 24 10 13 1017.3 - 1.2
02/01:30pm 11.2 7.1 7.9 80 1.6 SW 19 26 10 14 1017.2 - 1.2
02/01:00pm 11.4 8.5 8.1 80 1.6 SSW 13 20 7 11 1017.0 - 1.0
02/12:30pm 11.3 8.2 8.7 84 1.3 WSW 15 20 8 11 1016.9 - 1.0
02/12:00pm 9.9 5.7 7.6 85 1.1 WSW 19 24 10 13 1016.8 1016.8 1.0
02/11:30am 9.6 5.9 7.9 89 0.8 WSW 17 26 9 14 1016.6 - 1.0
02/11:20am 9.0 4.7 7.7 91 0.6 WSW 20 26 11 14 1016.7 - 1.0
02/11:00am 9.4 5.2 7.5 88 0.9 WSW 19 24 10 13 1016.7 - 0.6
02/10:30am 9.6 5.4 7.3 85 1.1 SSW 19 24 10 13 1016.6 - 0.6
02/10:00am 8.9 4.3 5.8 81 1.4 SSE 19 24 10 13 1016.7 - 0.4
02/09:30am 10.2 5.4 7.5 83 1.3 W 22 28 12 15 1015.6 - 0.0
02/09:00am 9.5 5.1 7.6 88 0.9 W 20 26 11 14 1015.6 1015.6 3.4
02/08:30am 9.4 5.2 7.5 88 0.9 W 19 26 10 14 1015.3 - 3.4
02/08:00am 8.8 4.6 7.3 90 0.7 W 19 28 10 15 1015.0 - 3.4
02/07:30am 8.7 4.4 7.0 89 0.8 W 19 26 10 14 1014.7 - 2.8
02/07:00am 8.6 4.1 7.1 90 0.7 W 20 26 11 14 1014.0 - 2.8
02/06:30am 8.3 4.0 7.0 91 0.6 W 19 24 10 13 1013.6 - 2.8
02/06:00am 8.7 4.5 7.4 91 0.6 W 19 24 10 13 1013.3 1013.3 2.8
02/05:30am 9.0 4.3 7.7 91 0.6 W 22 30 12 16 1012.8 - 2.8
02/05:00am 9.3 4.9 7.6 89 0.8 W 20 28 11 15 1012.2 - 2.8
02/04:30am 9.3 5.0 7.8 90 0.7 W 20 30 11 16 1011.8 - 2.8
02/04:00am 9.4 4.8 8.2 92 0.6 W 22 28 12 15 1011.7 - 2.8
02/03:30am 9.7 5.7 8.3 91 0.7 W 19 24 10 13 1011.7 - 2.8
02/03:00am 9.7 6.1 8.5 92 0.6 W 17 24 9 13 1011.7 1011.7 2.8
02/02:30am 9.9 6.0 8.5 91 0.7 W 19 24 10 13 1011.4 - 2.8
02/02:00am 9.9 6.3 8.5 91 0.7 W 17 20 9 11 1011.4 - 2.8
02/01:30am 10.2 6.1 8.6 90 0.8 W 20 24 11 13 1011.4 - 2.8
02/01:00am 9.9 6.4 8.7 92 0.6 W 17 20 9 11 1011.3 - 2.8
02/12:30am 9.7 6.9 8.5 92 0.6 WNW 13 15 7 8 1011.3 - 2.8
02/12:00am 9.7 6.5 8.5 92 0.6 W 15 15 8 8 1011.4 1011.4 2.8
 
Date/Time
EST
Temp
°C
App
Temp
°C
Dew
Point
Rel
Hum
%
Delta-T
°C
Wind Press
QNH
hPa
Press
MSL
hPa
Rain
since 9 am
mm
Dir
 
Spd
km/h
Gust
km/h
Spd
kts
Gust
kts
01/11:30pm 9.5 6.7 8.5 93 0.5 W 13 17 7 9 1011.2 - 2.8
01/11:00pm 9.7 6.6 8.7 93 0.5 W 15 17 8 9 1011.2 - 2.8
01/10:30pm 9.7 6.2 8.9 95 0.4 WNW 17 20 9 11 1011.0 - 2.8
01/10:00pm 9.9 7.2 9.1 95 0.4 WNW 13 15 7 8 1011.1 - 2.8
01/09:30pm 10.1 7.4 8.9 92 0.6 WNW 13 17 7 9 1011.0 - 2.4
01/09:00pm 10.4 6.9 8.6 89 0.9 WNW 17 20 9 11 1010.9 1010.9 2.0
01/08:30pm 10.5 7.1 9.1 91 0.7 W 17 20 9 11 1010.7 - 1.8
01/08:00pm 10.7 8.1 9.3 91 0.7 W 13 15 7 8 1010.6 - 1.6
01/07:30pm 11.0 7.6 9.0 87 1.0 NW 17 19 9 10 1010.2 - 1.4
01/07:00pm 11.3 7.3 9.1 86 1.1 W 20 26 11 14 1010.1 - 1.4
01/06:30pm 11.5 7.3 9.7 89 0.9 W 22 33 12 18 1009.9 - 1.4
01/06:00pm 11.6 8.0 9.8 89 0.9 W 19 26 10 14 1009.5 1009.5 1.2
01/05:30pm 11.7 8.1 9.9 89 0.9 W 19 24 10 13 1008.9 - 1.0
01/05:00pm 11.9 8.7 9.9 87 1.0 W 17 22 9 12 1008.5 - 0.8
01/04:30pm 12.1 8.3 9.7 85 1.2 WSW 20 30 11 16 1008.4 - 0.6
01/04:00pm 12.9 7.0 8.9 76 2.0 WSW 30 41 16 22 1007.6 - 0.0
01/03:46pm 13.4 7.3 8.4 72 2.5 WSW 30 48 16 26 1007.4 - 0.0
01/03:30pm 14.4 10.0 7.3 62 3.5 WSW 20 35 11 19 1007.3 - 0.0
01/03:00pm 15.7 9.8 5.9 52 4.7 WSW 26 37 14 20 1006.8 1006.8 0.0
01/02:30pm 16.5 10.7 4.6 45 5.6 WSW 24 32 13 17 1006.6 - 0.0
01/02:00pm 17.1 12.4 6.0 48 5.4 SW 20 28 11 15 1006.4 - 0.0
01/01:41pm 17.5 9.7 5.0 43 6.0 SW 35 43 19 23 1006.6 - 0.0
01/01:30pm 18.0 14.6 7.5 50 5.3 WSW 15 20 8 11 1006.2 - 0.0
01/01:00pm 19.3 16.9 8.5 49 5.6 N 11 17 6 9 1006.1 - 0.0
01/12:30pm 19.8 15.7 6.1 40 6.8 N 17 20 9 11 1006.3 - 0.0
01/12:00pm 18.8 14.1 5.2 40 6.6 N 19 28 10 15 1006.9 1006.9 0.0
01/11:30am 18.4 13.8 6.5 45 5.9 N 20 26 11 14 1007.1 - 0.0
01/11:00am 17.1 12.6 6.0 48 5.4 N 19 28 10 15 1007.8 - 0.0
01/10:30am 15.8 11.8 6.6 54 4.5 N 17 20 9 11 1008.1 - 0.0
01/10:00am 14.6 11.1 7.0 60 3.7 NNE 15 19 8 10 1008.4 - 0.0
01/09:30am 14.6 11.1 7.0 60 3.7 NE 15 17 8 9 1009.0 - 0.0
01/09:00am 15.4 13.2 6.3 54 4.4 NNE 7 13 4 7 1009.5 1009.5 0.2
01/08:30am 15.1 10.9 5.9 54 4.4 N 17 26 9 14 1009.2 - 0.2
01/08:00am 12.6 10.6 7.2 69 2.6 ENE 7 13 4 7 1009.6 - 0.2
01/07:30am 10.9 9.3 8.0 82 1.4 ENE 6 9 3 5 1009.8 - 0.2
01/07:00am 10.1 8.3 7.8 86 1.1 N 7 11 4 6 1010.1 - 0.2
01/06:30am 10.0 8.1 7.5 84 1.2 NW 7 13 4 7 1010.2 - 0.2
01/06:00am 10.2 8.0 6.3 77 1.8 NW 7 11 4 6 1010.2 1010.2 0.2
01/05:30am 10.3 8.2 6.7 78 1.7 N 7 11 4 6 1010.1 - 0.2
01/05:00am 10.4 8.4 6.1 75 2.0 NNE 6 11 3 6 1010.0 - 0.2
01/04:30am 9.7 7.2 6.7 81 1.4 ENE 9 11 5 6 1009.9 - 0.2
01/04:00am 10.6 8.0 6.3 75 2.0 ESE 9 11 5 6 1010.2 - 0.2
01/03:30am 9.9 8.0 6.9 81 1.4 S 6 7 3 4 1010.5 - 0.2
01/03:00am 9.9 8.0 6.7 80 1.5 SSW 6 11 3 6 1010.6 1010.6 0.2
01/02:30am 10.6 8.1 6.6 76 1.9 N 9 13 5 7 1010.4 - 0.2
01/02:00am 10.7 7.5 6.7 76 1.9 NNE 13 17 7 9 1010.9 - 0.2
01/01:30am 10.7 7.6 7.1 78 1.7 NNE 13 15 7 8 1011.4 - 0.2
01/01:00am 9.5 6.8 7.4 87 1.0 ENE 11 13 6 7 1012.0 - 0.2
01/12:30am 9.3 7.3 7.2 87 1.0 ENE 7 11 4 6 1012.5 - 0.2
01/12:00am 9.2 6.8 6.8 85 1.1 ENE 9 11 5 6 1012.9 1012.9 0.2
 
Date/Time
EST
Temp
°C
App
Temp
°C
Dew
Point
Rel
Hum
%
Delta-T
°C
Wind Press
QNH
hPa
Press
MSL
hPa
Rain
since 9 am
mm
Dir
 
Spd
km/h
Gust
km/h
Spd
kts
Gust
kts
31/11:30pm 9.6 7.5 6.8 83 1.3 ESE 7 9 4 5 1013.2 - 0.2
31/11:00pm 9.4 7.5 6.8 84 1.2 E 6 9 3 5 1013.7 - 0.2
31/10:30pm 9.8 8.0 7.0 83 1.3 NNE 6 11 3 6 1014.0 - 0.2
31/10:00pm 9.6 8.3 7.5 87 1.0 ESE 4 6 2 3 1014.4 - 0.2
31/09:30pm 10.5 8.9 7.8 83 1.3 E 6 7 3 4 1014.8 - 0.2
31/09:00pm 11.3 8.9 7.1 75 2.0 NE 9 13 5 7 1014.9 1014.9 0.2
31/08:30pm 11.2 9.4 8.1 81 1.5 ENE 7 9 4 5 1015.1 - 0.2
31/08:00pm 11.4 9.3 8.3 81 1.5 NE 9 11 5 6 1015.1 - 0.2
31/07:30pm 11.3 9.6 8.2 81 1.5 E 7 9 4 5 1015.1 - 0.2
31/07:00pm 11.4 10.0 9.4 87 1.0 ENE 7 13 4 7 1015.2 - 0.2
31/06:30pm 11.9 9.1 8.7 81 1.6 ENE 13 15 7 8 1014.9 - 0.2
31/06:00pm 13.5 10.1 7.8 68 2.8 E 15 17 8 9 1014.8 1014.8 0.2
31/05:30pm 14.6 10.9 10.0 74 2.4 E 20 22 11 12 1014.7 - 0.2
31/05:00pm 17.3 13.3 9.0 58 4.3 E 20 24 11 13 1014.5 - 0.2
31/04:30pm 18.5 14.9 9.8 57 4.6 E 19 22 10 12 1014.4 - 0.2
31/04:00pm 17.6 14.1 10.3 62 3.9 E 19 22 10 12 1014.6 - 0.2
31/03:30pm 19.5 15.7 9.0 50 5.5 E 19 20 10 11 1014.8 - 0.2
31/03:00pm 19.4 16.1 9.4 52 5.3 E 17 20 9 11 1015.1 1015.1 0.2
31/02:30pm 19.7 17.5 10.7 56 4.9 ESE 13 17 7 9 1015.4 - 0.2
31/02:00pm 19.6 17.9 9.9 53 5.2 E 9 15 5 8 1015.6 - 0.2
31/01:30pm 19.1 17.6 10.6 58 4.6 E 9 15 5 8 1016.0 - 0.2
31/01:00pm 17.8 16.7 10.7 63 3.8 E 7 11 4 6 1016.7 - 0.2
31/12:30pm 17.0 15.8 10.2 64 3.6 E 7 11 4 6 1017.3 - 0.2
31/12:00pm 15.9 14.7 9.5 66 3.3 NNE 6 9 3 5 1017.9 1017.9 0.2
31/11:30am 15.0 13.8 9.6 70 2.8 ENE 6 9 3 5 1018.5 - 0.2
31/11:00am 14.4 13.0 8.9 69 2.8 NNW 6 9 3 5 1019.0 - 0.0
31/10:30am 12.4 10.8 8.6 77 1.9 NNW 7 9 4 5 1019.3 - 0.0
31/10:00am 10.4 8.5 7.7 83 1.3 WNW 7 9 4 5 1019.8 - 0.0
31/09:37am 8.5 6.4 8.3 99 0.1 NW 9 11 5 6 1020.1 - 0.0

Other Formats:

Comma delimited format used in spreadsheet applications
http://www.bom.gov.au/fwo/IDV60801/IDV60801.94907.axf

JavaScript Object Notation format (JSON) in row-major order
http://www.bom.gov.au/fwo/IDV60801/IDV60801.94907.json